Sault Ste Marie Airport
CYAM : now visible

Airfield :











YOU CAN JOIN US ON...

 
LOGIN :

Register | Disclaimer

   EN    FR    IT 

 









Legend :    VFR   Marginal VFR   IFR   Intensive IFR   Very Intensive IFR
Visi :
Ceiling :
>= 8 km
>= 3000ft
5 to 8 km
1000 to 3000 ft
1500m to 5 km
500 to 1000 ft
800 to 1500m
200 to 500 ft
< 800m
< 200 ft
Symbols :   Thunderstorms  Fog  Heavy snow  Heavy precipitations  Wind > 20 kt







- Airport Elevation : 630 ft
- IATA code : YAM


CYAM - Sault Ste Marie

CURRENT METAR :
  • 160500Z 07005KT 15SM OVC027 14/12 A3007 RMK SC8 SLP188

EXPIRED METARs :
  • 160400Z 10003KT 15SM SCT029 BKN072 14/11 A3007 RMK SC4AC3 SLP188
  • 160300Z 09007KT 15SM SCT024 BKN091 14/11 A3007 RMK SC3AC4 SLP189

TAF TAF CYAM
Valid from the 16 at 02:00 until the 16 at 14:00 UTC


160138Z 1602/1614 09005KT P6SM FEW015 SCT120
TEMPO 1602/1606 BKN012 BKN120
FM160600 08005KT 5SM BR FEW006 OVC012
TEMPO 1606/1608 2SM -DZ BR OVC006
PROB30 1606/1608 1SM -DZ BR OVC004 RMK NXT FCST BY 160800Z
No reported NOTAMs for that airfield.



MET'MAP, your aeronautical weather chart ! - Copyright ORBIFLY December 2007 - Disclaimer

ORBIFLY MET'MAP TEAM :

Programming & Development : Alexandra Zaïnal
Concept & Development : Baudouin d'Aumeries
Co-Development & Prog : Marc-Olivier Méhu
Technical & hardware support : Manuel Goepfert

Contact : metmap@orbifly.com




SOURCES & CREDITS :

   NOAA       Earth
Advisory